createdAt,value
2019-05-20T00:00:18.553Z,98773.02
2019-05-20T00:02:48.170Z,98773.55
2019-05-20T00:05:18.029Z,98764.36
2019-05-20T00:07:47.479Z,98760.30
2019-05-20T00:10:16.991Z,98764.98
2019-05-20T00:12:46.447Z,98756.33
2019-05-20T00:15:16.101Z,98753.80
2019-05-20T00:17:45.560Z,98754.42
2019-05-20T00:20:15.272Z,98752.88
2019-05-20T00:22:44.905Z,98747.67
2019-05-20T00:25:14.445Z,98740.89
2019-05-20T00:27:43.885Z,98739.84
2019-05-20T00:30:13.441Z,98737.88
2019-05-20T00:32:42.904Z,98741.63
2019-05-20T00:35:12.431Z,98741.63
2019-05-20T00:37:41.902Z,98736.30
2019-05-20T00:40:11.829Z,98741.51
2019-05-20T00:42:41.469Z,98740.46
2019-05-20T00:45:11.186Z,98737.66
2019-05-20T00:47:40.978Z,98733.38
2019-05-20T00:50:10.710Z,98734.02
2019-05-20T00:52:40.338Z,98742.37
2019-05-20T00:55:24.877Z,98743.41
2019-05-20T00:57:54.388Z,98737.59
2019-05-20T01:00:24.202Z,98739.98
2019-05-20T01:02:56.944Z,98740.23
2019-05-20T01:05:25.945Z,98740.23
2019-05-20T01:07:55.978Z,98738.13
2019-05-20T01:10:25.624Z,98742.81
2019-05-20T01:12:55.189Z,98740.32
2019-05-20T01:15:25.004Z,98746.17
2019-05-20T01:17:54.621Z,98744.72
2019-05-20T01:20:24.265Z,98742.13
2019-05-20T01:22:53.817Z,98739.53
2019-05-20T01:25:23.444Z,98741.93
2019-05-20T01:27:53.509Z,98740.79
2019-05-20T01:30:23.161Z,98736.45
2019-05-20T01:32:52.946Z,98736.88
2019-05-20T01:35:22.609Z,98729.38
2019-05-20T01:37:52.241Z,98732.52
2019-05-20T01:40:21.828Z,98722.63
2019-05-20T01:42:51.457Z,98721.17
2019-05-20T01:45:21.104Z,98714.75
2019-05-20T01:47:50.640Z,98715.48
2019-05-20T01:50:20.185Z,98715.59
2019-05-20T01:52:49.718Z,98726.33
2019-05-20T01:55:19.175Z,98726.63
2019-05-20T01:57:48.759Z,98721.33
2019-05-20T02:00:20.052Z,98710.82
2019-05-20T02:02:49.585Z,98713.44
2019-05-20T02:05:19.240Z,98711.28
2019-05-20T02:07:48.701Z,98703.27
2019-05-20T02:10:18.374Z,98704.02
2019-05-20T02:12:48.075Z,98698.60
2019-05-20T02:15:25.851Z,98703.84
2019-05-20T02:17:55.475Z,98702.08
2019-05-20T02:20:24.948Z,98702.01
2019-05-20T02:22:56.136Z,98697.43
2019-05-20T02:25:25.601Z,98694.58
2019-05-20T02:27:55.061Z,98697.63
2019-05-20T02:30:24.711Z,98692.52
2019-05-20T02:32:54.169Z,98690.03
2019-05-20T02:35:23.642Z,98685.34
2019-05-20T02:37:53.267Z,98681.58
2019-05-20T02:40:22.751Z,98674.30
2019-05-20T02:42:52.233Z,98674.30
2019-05-20T02:45:22.068Z,98678.66
2019-05-20T02:47:51.974Z,98670.44
2019-05-20T02:50:21.814Z,98671.80
2019-05-20T02:52:51.279Z,98671.89
2019-05-20T02:55:21.006Z,98669.38
2019-05-20T02:57:50.854Z,98667.59
2019-05-20T03:00:20.351Z,98673.63
2019-05-20T03:02:50.210Z,98669.38
2019-05-20T03:05:19.657Z,98666.15
2019-05-20T03:07:49.124Z,98662.70
2019-05-20T03:10:18.586Z,98665.41
2019-05-20T03:12:48.067Z,98653.88
2019-05-20T03:15:18.079Z,98654.31
2019-05-20T03:17:47.764Z,98652.13
2019-05-20T03:20:17.211Z,98654.63
2019-05-20T03:22:46.753Z,98665.23
2019-05-20T03:25:16.637Z,98658.78
2019-05-20T03:27:46.104Z,98664.71
2019-05-20T03:30:15.822Z,98669.28
2019-05-20T03:32:45.365Z,98669.39
2019-05-20T03:35:15.157Z,98662.75
2019-05-20T03:37:44.616Z,98672.52
2019-05-20T03:40:14.251Z,98671.17
2019-05-20T03:42:44.084Z,98670.14
2019-05-20T03:45:13.806Z,98666.92
2019-05-20T03:47:43.416Z,98669.11
2019-05-20T03:50:13.713Z,98667.66
2019-05-20T03:52:43.437Z,98673.91
2019-05-20T03:55:12.958Z,98673.91
2019-05-20T03:57:42.486Z,98674.30
2019-05-20T04:00:12.271Z,98667.97
2019-05-20T04:02:42.100Z,98673.39
2019-05-20T04:05:11.573Z,98670.25
2019-05-20T04:07:41.103Z,98670.16
2019-05-20T04:10:11.097Z,98670.78
2019-05-20T04:12:40.572Z,98671.69
2019-05-20T04:15:10.162Z,98671.09
2019-05-20T04:17:39.893Z,98671.80
2019-05-20T04:20:09.751Z,98673.34
2019-05-20T04:22:39.243Z,98671.09
2019-05-20T04:25:08.738Z,98667.89
2019-05-20T04:27:38.307Z,98666.98
2019-05-20T04:30:08.133Z,98666.84
2019-05-20T04:32:37.623Z,98664.97
2019-05-20T04:35:21.428Z,98675.28
2019-05-20T04:37:38.711Z,98671.93
2019-05-20T04:40:09.021Z,98668.55
2019-05-20T04:42:38.497Z,98666.36
2019-05-20T04:45:08.775Z,98663.34
2019-05-20T04:47:38.614Z,98668.94
2019-05-20T04:50:08.781Z,98675.42
2019-05-20T04:52:38.233Z,98671.34
2019-05-20T04:55:07.866Z,98663.00
2019-05-20T04:57:37.367Z,98659.12
2019-05-20T05:00:10.071Z,98654.46
2019-05-20T05:02:43.472Z,98657.62
2019-05-20T05:05:11.134Z,98648.76
2019-05-20T05:07:40.600Z,98648.72
2019-05-20T05:10:10.486Z,98643.63
2019-05-20T05:12:39.966Z,98649.12
2019-05-20T05:15:10.194Z,98649.80
2019-05-20T05:17:39.688Z,98645.57
2019-05-20T05:20:17.678Z,98650.55
2019-05-20T05:22:40.738Z,98654.33
2019-05-20T05:25:10.895Z,98659.73
2019-05-20T05:27:40.441Z,98657.77
2019-05-20T05:30:10.317Z,98663.73
2019-05-20T05:32:42.996Z,98660.27
2019-05-20T05:35:14.007Z,98659.23
2019-05-20T05:37:43.566Z,98654.98
2019-05-20T05:40:14.366Z,98649.75
2019-05-20T05:42:44.126Z,98651.35
2019-05-20T05:45:13.797Z,98649.67
2019-05-20T05:47:43.988Z,98653.69
2019-05-20T05:50:13.700Z,98657.33
2019-05-20T05:52:43.233Z,98657.94
2019-05-20T05:55:12.778Z,98655.67
2019-05-20T05:57:42.247Z,98655.27
2019-05-20T06:00:12.435Z,98645.50
2019-05-20T06:02:41.901Z,98641.73
2019-05-20T06:05:11.487Z,98633.59
2019-05-20T06:07:40.998Z,98624.03
2019-05-20T06:10:10.752Z,98624.64
2019-05-20T06:12:40.223Z,98615.80
2019-05-20T06:15:11.034Z,98619.55
2019-05-20T06:17:40.484Z,98608.59
2019-05-20T06:20:10.327Z,98617.74
2019-05-20T06:22:39.903Z,98629.70
2019-05-20T06:25:09.542Z,98634.67
2019-05-20T06:27:39.046Z,98642.91
2019-05-20T06:30:11.324Z,98638.59
2019-05-20T06:32:40.959Z,98641.50
2019-05-20T06:35:12.093Z,98637.34
2019-05-20T06:37:43.567Z,98632.48
2019-05-20T06:40:13.212Z,98634.32
2019-05-20T06:42:42.670Z,98633.62
2019-05-20T06:45:12.648Z,98623.95
2019-05-20T06:47:42.110Z,98624.83
2019-05-20T06:50:12.659Z,98626.83
2019-05-20T06:52:42.498Z,98631.03
2019-05-20T06:55:12.504Z,98631.72
2019-05-20T06:57:41.994Z,98633.23
2019-05-20T07:00:12.223Z,98635.67
2019-05-20T07:02:41.750Z,98648.89
2019-05-20T07:05:12.106Z,98644.33
2019-05-20T07:07:41.599Z,98645.36
2019-05-20T07:10:11.604Z,98640.79
2019-05-20T07:12:41.995Z,98641.06
2019-05-20T07:15:11.712Z,98633.68
2019-05-20T07:17:41.162Z,98629.55
2019-05-20T07:20:10.705Z,98627.93
2019-05-20T07:22:55.343Z,98623.77
2019-05-20T07:25:11.881Z,98625.34
2019-05-20T07:27:41.358Z,98633.30
2019-05-20T07:30:15.039Z,98629.00
2019-05-20T07:32:42.717Z,98626.42
2019-05-20T07:35:28.963Z,98621.50
2019-05-20T07:37:43.593Z,98621.28
2019-05-20T07:40:13.670Z,98619.53
2019-05-20T07:42:43.141Z,98614.98
2019-05-20T07:45:12.996Z,98619.93
2019-05-20T07:47:42.515Z,98610.59
2019-05-20T07:50:12.532Z,98615.14
2019-05-20T07:52:42.730Z,98613.34
2019-05-20T07:55:12.270Z,98609.89
2019-05-20T07:57:41.819Z,98602.68
2019-05-20T08:00:11.559Z,98607.16
2019-05-20T08:02:41.008Z,98601.75
2019-05-20T08:05:11.404Z,98601.00
2019-05-20T08:07:51.861Z,98607.50
2019-05-20T08:10:12.486Z,98614.33
2019-05-20T08:12:41.958Z,98617.45
2019-05-20T08:15:11.574Z,98612.63
2019-05-20T08:17:41.145Z,98612.53
2019-05-20T08:20:10.896Z,98614.34
2019-05-20T08:22:40.367Z,98620.86
2019-05-20T08:25:10.421Z,98617.64
2019-05-20T08:27:39.870Z,98623.38
2019-05-20T08:30:13.892Z,98616.81
2019-05-20T08:32:41.365Z,98618.00
2019-05-20T08:35:11.078Z,98621.87
2019-05-20T08:37:45.281Z,98623.25
2019-05-20T08:40:11.888Z,98627.61
2019-05-20T08:42:41.668Z,98632.27
2019-05-20T08:45:11.199Z,98631.74
2019-05-20T08:47:40.666Z,98631.17
2019-05-20T08:50:15.943Z,98630.64
2019-05-20T08:52:42.198Z,98626.52
2019-05-20T08:55:11.678Z,98634.50
2019-05-20T08:57:41.277Z,98632.55
2019-05-20T09:00:23.285Z,98640.09
2019-05-20T09:02:50.937Z,98632.42
2019-05-20T09:05:20.869Z,98638.36
2019-05-20T09:08:02.087Z,98630.73
2019-05-20T09:10:23.786Z,98637.27
2019-05-20T09:12:55.163Z,98631.30
2019-05-20T09:15:24.601Z,98635.38
2019-05-20T09:17:54.075Z,98630.96
2019-05-20T09:20:23.772Z,98630.75
2019-05-20T09:22:53.332Z,98623.92
2019-05-20T09:25:30.952Z,98626.91
2019-05-20T09:28:01.327Z,98631.60
2019-05-20T09:30:30.790Z,98627.47
2019-05-20T09:33:00.268Z,98625.36
2019-05-20T09:35:30.074Z,98619.39
2019-05-20T09:37:59.929Z,98619.66
2019-05-20T09:40:45.448Z,98617.73
2019-05-20T09:43:14.898Z,98614.11
2019-05-20T09:45:44.387Z,98620.26
2019-05-20T09:48:13.845Z,98620.54
2019-05-20T09:50:43.331Z,98624.52
2019-05-20T09:53:13.016Z,98617.14
2019-05-20T09:55:42.524Z,98625.22
2019-05-20T09:58:12.102Z,98625.70
2019-05-20T10:00:41.636Z,98623.41
2019-05-20T10:03:11.195Z,98615.27
2019-05-20T10:05:41.139Z,98616.36
2019-05-20T10:08:10.613Z,98609.12
2019-05-20T10:10:40.066Z,98610.98
2019-05-20T10:13:09.783Z,98603.79
2019-05-20T10:15:39.325Z,98606.46
2019-05-20T10:18:08.812Z,98609.87
2019-05-20T10:20:38.545Z,98610.67
2019-05-20T10:23:08.028Z,98604.67
2019-05-20T10:25:37.968Z,98602.95
2019-05-20T10:28:07.416Z,98608.34
2019-05-20T10:30:37.228Z,98608.19
2019-05-20T10:33:09.039Z,98600.95
2019-05-20T10:35:37.904Z,98599.48
2019-05-20T10:38:07.706Z,98593.33
2019-05-20T10:40:37.285Z,98592.48
2019-05-20T10:43:06.704Z,98594.13
2019-05-20T10:45:36.162Z,98592.52
2019-05-20T10:48:08.757Z,98595.06
2019-05-20T10:50:36.815Z,98594.83
2019-05-20T10:53:06.289Z,98593.70
2019-05-20T10:55:36.010Z,98600.77
2019-05-20T10:58:05.487Z,98596.29
2019-05-20T11:00:34.954Z,98604.75
2019-05-20T11:03:04.433Z,98603.87
2019-05-20T11:05:34.179Z,98601.52
2019-05-20T11:08:03.657Z,98609.34
2019-05-20T11:10:33.124Z,98615.67
2019-05-20T11:13:03.538Z,98617.73
2019-05-20T11:15:33.792Z,98617.52
2019-05-20T11:18:03.743Z,98618.30
2019-05-20T11:20:33.208Z,98627.58
2019-05-20T11:23:02.689Z,98628.50
2019-05-20T11:25:32.168Z,98634.48
2019-05-20T11:28:01.703Z,98641.05
2019-05-20T11:30:31.334Z,98654.80
2019-05-20T11:33:00.817Z,98649.63
2019-05-20T11:35:30.304Z,98652.16
2019-05-20T11:37:59.780Z,98647.37
2019-05-20T11:40:29.262Z,98643.10
2019-05-20T11:42:58.714Z,98644.34
2019-05-20T11:45:28.296Z,98640.97
2019-05-20T11:47:57.808Z,98633.61
2019-05-20T11:50:27.517Z,98638.70
2019-05-20T11:52:57.071Z,98639.42
2019-05-20T11:55:26.638Z,98642.61
2019-05-20T11:57:56.242Z,98642.27
2019-05-20T12:00:26.204Z,98642.13
2019-05-20T12:02:56.129Z,98641.64
2019-05-20T12:05:25.590Z,98640.43
2019-05-20T12:07:55.133Z,98636.34
2019-05-20T12:10:24.848Z,98630.80
2019-05-20T12:12:54.310Z,98637.36
2019-05-20T12:15:24.033Z,98641.70
2019-05-20T12:17:53.819Z,98627.09
2019-05-20T12:20:23.274Z,98624.72
2019-05-20T12:22:52.752Z,98621.64
2019-05-20T12:25:22.221Z,98618.48
2019-05-20T12:27:51.961Z,98623.69
2019-05-20T12:30:21.563Z,98622.05
2019-05-20T12:33:15.520Z,98622.63
2019-05-20T12:35:22.579Z,98621.70
2019-05-20T12:37:52.183Z,98620.22
2019-05-20T12:40:21.936Z,98621.72
2019-05-20T12:42:51.581Z,98618.38
2019-05-20T12:45:21.066Z,98617.31
2019-05-20T12:47:50.775Z,98615.53
2019-05-20T12:50:20.258Z,98609.35
2019-05-20T12:52:49.871Z,98604.37
2019-05-20T12:55:19.512Z,98603.45
2019-05-20T12:57:48.978Z,98594.80
2019-05-20T13:00:19.171Z,98589.52
2019-05-20T13:02:48.695Z,98587.67
2019-05-20T13:05:19.386Z,98595.52
2019-05-20T13:07:48.832Z,98587.23
2019-05-20T13:10:31.198Z,98577.23
2019-05-20T13:12:50.581Z,98573.16
2019-05-20T13:15:20.131Z,98569.40
2019-05-20T13:17:50.119Z,98567.55
2019-05-20T13:20:21.144Z,98571.37
2019-05-20T13:22:50.830Z,98571.45
2019-05-20T13:25:20.389Z,98571.33
2019-05-20T13:27:49.854Z,98572.98
2019-05-20T13:30:19.974Z,98570.44
2019-05-20T13:32:49.502Z,98567.50
2019-05-20T13:35:19.168Z,98569.92
2019-05-20T13:37:48.617Z,98558.03
2019-05-20T13:40:18.379Z,98560.00
2019-05-20T13:42:47.864Z,98551.45
2019-05-20T13:45:17.528Z,98559.17
2019-05-20T13:47:47.016Z,98555.20
2019-05-20T13:50:18.378Z,98553.60
2019-05-20T13:52:47.832Z,98555.02
2019-05-20T13:55:17.727Z,98553.36
2019-05-20T13:57:47.202Z,98560.11
2019-05-20T14:00:17.131Z,98554.31
2019-05-20T14:02:46.601Z,98550.17
2019-05-20T14:05:16.113Z,98547.45
2019-05-20T14:07:45.701Z,98548.99
2019-05-20T14:10:15.847Z,98539.34
2019-05-20T14:12:45.302Z,98539.16
2019-05-20T14:15:15.129Z,98538.31
2019-05-20T14:17:44.760Z,98538.68
2019-05-20T14:20:16.471Z,98542.89
2019-05-20T14:22:45.923Z,98542.00
2019-05-20T14:25:15.414Z,98549.61
2019-05-20T14:27:44.861Z,98579.38
2019-05-20T14:30:14.656Z,98563.70
2019-05-20T14:32:44.144Z,98578.34
2019-05-20T14:35:13.773Z,98580.60
2019-05-20T14:37:43.221Z,98578.80
2019-05-20T14:40:13.360Z,98585.28
2019-05-20T14:42:42.811Z,98598.41
2019-05-20T14:45:12.480Z,98598.41
2019-05-20T14:47:41.941Z,98605.95
2019-05-20T14:50:11.847Z,98599.92
2019-05-20T14:52:41.304Z,98601.14
2019-05-20T14:55:13.203Z,98602.29
2019-05-20T14:57:53.938Z,98604.99
2019-05-20T15:00:27.371Z,98604.89
2019-05-20T15:03:04.588Z,98602.19
2019-05-20T15:05:37.026Z,98602.19
2019-05-20T15:08:20.219Z,98599.69
2019-05-20T15:10:57.991Z,98598.44
2019-05-20T15:13:40.582Z,98608.14
2019-05-20T15:16:10.172Z,98612.20
2019-05-20T15:18:39.892Z,98614.59
2019-05-20T15:21:09.417Z,98617.38
2019-05-20T15:23:38.886Z,98610.00
2019-05-20T15:26:08.350Z,98600.80
2019-05-20T15:28:37.879Z,98594.69
2019-05-20T15:31:07.433Z,98598.02
2019-05-20T15:33:37.199Z,98594.69
2019-05-20T15:36:06.731Z,98597.70
2019-05-20T15:38:36.185Z,98602.39
2019-05-20T15:41:06.347Z,98607.05
2019-05-20T15:43:35.809Z,98608.92
2019-05-20T15:46:06.087Z,98597.90
2019-05-20T15:48:35.797Z,98601.84
2019-05-20T15:51:05.590Z,98597.77
2019-05-20T15:53:36.107Z,98597.09
2019-05-20T15:56:05.582Z,98595.62
2019-05-20T15:58:35.186Z,98594.38
2019-05-20T16:01:04.868Z,98593.41
2019-05-20T16:03:34.361Z,98594.03
2019-05-20T16:06:03.881Z,98600.43
2019-05-20T16:08:33.790Z,98602.95
2019-05-20T16:11:06.601Z,98610.89
2019-05-20T16:13:35.045Z,98607.42
2019-05-20T16:16:04.869Z,98613.05
2019-05-20T16:18:34.623Z,98605.22
2019-05-20T16:21:04.150Z,98607.57
2019-05-20T16:23:33.654Z,98612.99
2019-05-20T16:26:03.105Z,98606.58
2019-05-20T16:28:32.611Z,98605.56
2019-05-20T16:31:02.140Z,98596.00
2019-05-20T16:33:31.683Z,98601.63
2019-05-20T16:36:01.168Z,98602.23
2019-05-20T16:38:30.609Z,98589.59
2019-05-20T16:41:00.071Z,98584.70
2019-05-20T16:43:29.533Z,98592.32
2019-05-20T16:45:58.973Z,98587.48
2019-05-20T16:48:28.514Z,98593.34
2019-05-20T16:50:58.326Z,98600.98
2019-05-20T16:53:27.823Z,98600.23
2019-05-20T16:55:57.338Z,98595.55
2019-05-20T16:58:26.794Z,98588.04
2019-05-20T17:00:56.236Z,98593.41
2019-05-20T17:03:25.698Z,98591.27
2019-05-20T17:05:55.160Z,98602.83
2019-05-20T17:08:24.621Z,98602.45
2019-05-20T17:10:54.098Z,98600.98
2019-05-20T17:13:23.572Z,98593.67
2019-05-20T17:15:54.084Z,98594.38
2019-05-20T17:18:23.659Z,98595.97
2019-05-20T17:20:53.115Z,98595.40
2019-05-20T17:23:23.093Z,98597.15
2019-05-20T17:25:52.613Z,98593.56
2019-05-20T17:28:22.362Z,98600.25
2019-05-20T17:30:51.910Z,98597.30
2019-05-20T17:33:21.693Z,98597.83
2019-05-20T17:35:51.148Z,98597.47
2019-05-20T17:38:20.663Z,98590.55
2019-05-20T17:40:50.112Z,98595.97
2019-05-20T17:43:20.338Z,98593.47
2019-05-20T17:45:50.188Z,98596.73
2019-05-20T17:48:19.749Z,98590.39
2019-05-20T17:50:49.558Z,98597.29
2019-05-20T17:53:19.202Z,98595.26
2019-05-20T17:55:48.761Z,98593.91
2019-05-20T17:58:18.231Z,98592.39
2019-05-20T18:00:47.948Z,98595.29
2019-05-20T18:03:17.417Z,98593.78
2019-05-20T18:05:47.191Z,98585.11
2019-05-20T18:08:16.657Z,98587.96
2019-05-20T18:10:46.449Z,98577.42
2019-05-20T18:13:16.192Z,98583.41
2019-05-20T18:15:45.660Z,98579.34
2019-05-20T18:18:15.195Z,98585.02
2019-05-20T18:20:44.666Z,98573.75
2019-05-20T18:23:14.556Z,98575.32
2019-05-20T18:25:44.496Z,98570.25
2019-05-20T18:28:14.246Z,98562.24
2019-05-20T18:30:43.959Z,98559.60
2019-05-20T18:33:13.887Z,98563.21
2019-05-20T18:35:43.344Z,98562.13
2019-05-20T18:38:12.819Z,98571.00
2019-05-20T18:40:42.283Z,98576.23
2019-05-20T18:43:11.750Z,98580.99
2019-05-20T18:45:41.378Z,98586.00
2019-05-20T18:48:11.065Z,98590.39
2019-05-20T18:50:40.519Z,98586.88
2019-05-20T18:53:09.996Z,98585.78
2019-05-20T18:55:39.457Z,98583.84
2019-05-20T18:58:08.936Z,98578.35
2019-05-20T19:00:38.798Z,98581.52
2019-05-20T19:03:08.853Z,98596.30
2019-05-20T19:05:38.572Z,98596.30
2019-05-20T19:08:08.021Z,98600.39
2019-05-20T19:10:37.493Z,98608.70
2019-05-20T19:13:07.205Z,98608.59
2019-05-20T19:15:36.684Z,98612.34
2019-05-20T19:18:06.496Z,98612.64
2019-05-20T19:20:35.971Z,98612.67
2019-05-20T19:23:05.581Z,98611.31
2019-05-20T19:25:37.848Z,98607.05
2019-05-20T19:28:06.691Z,98608.59
2019-05-20T19:30:36.163Z,98610.48
2019-05-20T19:33:06.659Z,98604.63
2019-05-20T19:35:36.509Z,98625.11
2019-05-20T19:38:06.821Z,98634.45
2019-05-20T19:40:36.750Z,98631.95
2019-05-20T19:43:06.395Z,98633.30
2019-05-20T19:45:35.915Z,98636.13
2019-05-20T19:48:05.375Z,98632.57
2019-05-20T19:50:36.316Z,98632.57
2019-05-20T19:53:06.237Z,98639.03
2019-05-20T19:55:35.871Z,98633.61
2019-05-20T19:58:05.373Z,98633.15
2019-05-20T20:00:34.951Z,98631.03
2019-05-20T20:03:04.748Z,98631.00
2019-05-20T20:05:34.210Z,98624.25
2019-05-20T20:08:03.732Z,98620.40
2019-05-20T20:10:33.571Z,98619.85
2019-05-20T20:13:03.565Z,98622.71
2019-05-20T20:15:33.070Z,98611.59
2019-05-20T20:18:02.523Z,98612.11
2019-05-20T20:20:31.987Z,98613.50
2019-05-20T20:23:01.511Z,98612.44
2019-05-20T20:25:30.991Z,98607.14
2019-05-20T20:28:01.018Z,98607.14
2019-05-20T20:30:30.847Z,98609.53
2019-05-20T20:33:00.406Z,98614.48
2019-05-20T20:35:37.690Z,98621.18
2019-05-20T20:38:01.578Z,98618.63
2019-05-20T20:40:31.117Z,98611.36
2019-05-20T20:43:00.612Z,98612.86
2019-05-20T20:45:30.141Z,98608.05
2019-05-20T20:47:59.604Z,98597.89
2019-05-20T20:50:29.102Z,98593.40
2019-05-20T20:52:59.182Z,98598.93
2019-05-20T20:55:31.814Z,98597.20
2019-05-20T20:58:01.351Z,98597.44
2019-05-20T21:00:30.991Z,98594.23
2019-05-20T21:03:00.623Z,98590.70
2019-05-20T21:05:30.253Z,98600.33
2019-05-20T21:07:59.730Z,98600.41
2019-05-20T21:10:29.506Z,98603.81
2019-05-20T21:12:58.975Z,98612.09
2019-05-20T21:15:28.496Z,98613.50
2019-05-20T21:17:58.135Z,98621.27
2019-05-20T21:20:27.847Z,98621.27
2019-05-20T21:22:57.677Z,98622.08
2019-05-20T21:25:27.971Z,98619.77
2019-05-20T21:27:57.811Z,98608.60
2019-05-20T21:30:27.362Z,98618.42
2019-05-20T21:33:08.660Z,98624.52
2019-05-20T21:35:28.116Z,98618.80
2019-05-20T21:37:57.611Z,98619.95
2019-05-20T21:40:27.155Z,98621.95
2019-05-20T21:42:56.815Z,98624.13
2019-05-20T21:45:26.273Z,98623.68
2019-05-20T21:47:56.000Z,98625.41
2019-05-20T21:50:25.744Z,98637.14
2019-05-20T21:52:55.293Z,98648.43
2019-05-20T21:55:25.069Z,98649.57
2019-05-20T21:57:54.610Z,98649.40
2019-05-20T22:00:28.578Z,98636.31
2019-05-20T22:02:58.132Z,98637.85
2019-05-20T22:05:27.665Z,98637.85
2019-05-20T22:07:57.190Z,98642.91
2019-05-20T22:10:26.644Z,98645.80
2019-05-20T22:12:56.430Z,98644.39
2019-05-20T22:15:25.964Z,98655.41
2019-05-20T22:17:55.459Z,98657.97
2019-05-20T22:20:24.908Z,98664.83
2019-05-20T22:23:12.559Z,98663.81
2019-05-20T22:25:42.180Z,98659.77
2019-05-20T22:28:12.983Z,98662.84
2019-05-20T22:30:43.023Z,98654.95
2019-05-20T22:33:12.520Z,98664.29
2019-05-20T22:35:42.002Z,98667.87
2019-05-20T22:38:11.475Z,98660.90
2019-05-20T22:40:41.239Z,98662.06
2019-05-20T22:43:10.707Z,98649.63
2019-05-20T22:45:40.197Z,98657.32
2019-05-20T22:48:09.663Z,98650.92
2019-05-20T22:50:39.305Z,98650.86
2019-05-20T22:53:08.773Z,98650.86
2019-05-20T22:55:38.268Z,98652.20
2019-05-20T22:58:07.763Z,98653.14
2019-05-20T23:00:37.234Z,98651.48
2019-05-20T23:03:06.755Z,98651.48
2019-05-20T23:05:36.526Z,98658.94
2019-05-20T23:08:06.102Z,98644.71
2019-05-20T23:10:35.763Z,98645.40
2019-05-20T23:13:05.240Z,98646.05
2019-05-20T23:15:35.037Z,98645.91
2019-05-20T23:18:04.855Z,98648.43
2019-05-20T23:20:34.381Z,98649.89
2019-05-20T23:23:03.945Z,98641.48
2019-05-20T23:25:33.762Z,98631.61
2019-05-20T23:28:03.668Z,98639.31
2019-05-20T23:30:33.762Z,98641.69
2019-05-20T23:33:03.745Z,98638.99
2019-05-20T23:35:33.268Z,98636.48
2019-05-20T23:38:02.756Z,98627.95
2019-05-20T23:40:32.541Z,98621.13
2019-05-20T23:43:02.274Z,98625.72
2019-05-20T23:45:31.809Z,98634.13
2019-05-20T23:48:01.338Z,98630.05
2019-05-20T23:50:31.180Z,98629.49
2019-05-20T23:53:00.931Z,98630.56
2019-05-20T23:55:30.675Z,98635.95
2019-05-20T23:58:00.349Z,98632.75
